createdAt,value
2018-06-08T00:01:34.095Z,98872.30
2018-06-08T00:04:37.539Z,98876.16
2018-06-08T00:07:41.107Z,98875.38
2018-06-08T00:10:44.635Z,98877.45
2018-06-08T00:13:48.233Z,98876.20
2018-06-08T00:16:51.638Z,98874.08
2018-06-08T00:19:55.151Z,98871.95
2018-06-08T00:22:58.502Z,98865.55
2018-06-08T00:26:04.135Z,98862.16
2018-06-08T00:29:07.855Z,98865.67
2018-06-08T00:32:11.257Z,98864.56
2018-06-08T00:35:14.741Z,98861.11
2018-06-08T00:38:18.447Z,98859.92
2018-06-08T00:41:22.166Z,98853.66
2018-06-08T00:44:25.659Z,98856.23
2018-06-08T00:47:29.219Z,98848.10
2018-06-08T00:50:32.618Z,98852.58
2018-06-08T00:53:38.251Z,98849.13
2018-06-08T00:56:53.025Z,98842.52
2018-06-08T00:59:56.698Z,98838.26
2018-06-08T01:03:00.258Z,98839.58
2018-06-08T01:06:03.696Z,98844.06
2018-06-08T01:09:08.744Z,98843.98
2018-06-08T01:12:12.184Z,98843.68
2018-06-08T01:15:17.611Z,98845.52
2018-06-08T01:18:23.291Z,98837.64
2018-06-08T01:21:27.437Z,98835.17
2018-06-08T01:24:32.370Z,98835.55
2018-06-08T01:27:35.715Z,98837.85
2018-06-08T01:30:39.210Z,98840.66
2018-06-08T01:33:42.819Z,98843.55
2018-06-08T01:36:46.991Z,98836.13
2018-06-08T01:39:50.405Z,98844.48
2018-06-08T01:42:54.182Z,98841.68
2018-06-08T01:45:57.930Z,98842.59
2018-06-08T01:49:04.671Z,98845.48
2018-06-08T01:52:08.168Z,98852.18
2018-06-08T01:55:11.674Z,98857.67
2018-06-08T01:58:15.215Z,98854.95
2018-06-08T02:01:19.720Z,98855.46
2018-06-08T02:04:23.290Z,98857.98
2018-06-08T02:07:26.773Z,98857.55
2018-06-08T02:10:30.200Z,98857.42
2018-06-08T02:13:34.717Z,98860.09
2018-06-08T02:16:41.421Z,98858.94
2018-06-08T02:19:45.085Z,98859.84
2018-06-08T02:22:49.599Z,98855.52
2018-06-08T02:25:53.178Z,98858.66
2018-06-08T02:28:56.426Z,98857.71
2018-06-08T02:31:59.981Z,98846.41
2018-06-08T02:35:03.403Z,98849.43
2018-06-08T02:38:07.290Z,98847.59
2018-06-08T02:41:10.637Z,98843.92
2018-06-08T02:44:14.159Z,98847.97
2018-06-08T02:47:18.605Z,98850.02
2018-06-08T02:50:22.177Z,98851.27
2018-06-08T02:53:25.677Z,98843.60
2018-06-08T02:56:29.180Z,98848.00
2018-06-08T02:59:32.761Z,98843.47
2018-06-08T03:02:36.201Z,98847.89
2018-06-08T03:05:41.097Z,98843.78
2018-06-08T03:08:45.032Z,98841.73
2018-06-08T03:11:50.123Z,98839.37
2018-06-08T03:14:55.949Z,98833.03
2018-06-08T03:18:00.809Z,98833.25
2018-06-08T03:21:05.597Z,98833.47
2018-06-08T03:24:13.055Z,98830.70
2018-06-08T03:27:17.763Z,98830.55
2018-06-08T03:30:25.805Z,98828.81
2018-06-08T03:33:35.984Z,98824.98
2018-06-08T03:36:41.312Z,98829.38
2018-06-08T03:39:46.089Z,98836.96
2018-06-08T03:42:50.510Z,98829.55
2018-06-08T03:45:55.180Z,98826.66
2018-06-08T03:49:00.660Z,98826.75
2018-06-08T03:52:07.312Z,98821.77
2018-06-08T03:55:10.878Z,98823.67
2018-06-08T03:58:14.425Z,98831.61
2018-06-08T04:01:18.204Z,98829.97
2018-06-08T04:04:22.576Z,98834.97
2018-06-08T04:07:27.851Z,98839.12
2018-06-08T04:10:31.380Z,98840.25
2018-06-08T04:13:35.352Z,98845.41
2018-06-08T04:16:38.848Z,98841.30
2018-06-08T04:19:42.323Z,98845.36
2018-06-08T04:22:46.068Z,98843.31
2018-06-08T04:25:49.691Z,98840.20
2018-06-08T04:28:53.532Z,98837.11
2018-06-08T04:31:58.004Z,98839.98
2018-06-08T04:35:01.551Z,98838.95
2018-06-08T04:38:11.839Z,98839.05
2018-06-08T04:41:17.333Z,98839.32
2018-06-08T04:44:20.989Z,98843.14
2018-06-08T04:47:30.063Z,98848.13
2018-06-08T04:50:44.876Z,98854.44
2018-06-08T04:53:47.917Z,98857.89
2018-06-08T04:56:52.189Z,98864.52
2018-06-08T04:59:57.570Z,98866.79
2018-06-08T05:03:01.161Z,98863.22
2018-06-08T05:06:04.601Z,98867.81
2018-06-08T05:09:07.887Z,98864.32
2018-06-08T05:12:11.207Z,98871.08
2018-06-08T05:15:14.530Z,98860.70
2018-06-08T05:18:18.084Z,98866.08
2018-06-08T05:21:21.427Z,98870.18
2018-06-08T05:24:24.829Z,98869.19
2018-06-08T05:27:27.918Z,98866.27
2018-06-08T05:30:30.925Z,98873.47
2018-06-08T05:33:37.491Z,98871.20
2018-06-08T05:36:40.881Z,98874.04
2018-06-08T05:39:44.702Z,98878.08
2018-06-08T05:42:48.135Z,98880.45
2018-06-08T05:45:51.589Z,98885.12
2018-06-08T05:48:55.272Z,98882.17
2018-06-08T05:52:01.172Z,98886.64
2018-06-08T05:55:04.740Z,98877.65
2018-06-08T05:58:08.745Z,98874.88
2018-06-08T06:01:12.839Z,98875.77
2018-06-08T06:04:17.272Z,98872.75
2018-06-08T06:07:21.936Z,98877.05
2018-06-08T06:10:26.473Z,98881.86
2018-06-08T06:13:30.436Z,98881.52
2018-06-08T06:16:34.212Z,98885.84
2018-06-08T06:19:39.550Z,98886.80
2018-06-08T06:22:42.802Z,98882.63
2018-06-08T06:25:46.103Z,98886.47
2018-06-08T06:28:49.360Z,98881.63
2018-06-08T06:31:52.649Z,98879.75
2018-06-08T06:34:55.909Z,98874.75
2018-06-08T06:37:59.097Z,98873.43
2018-06-08T06:41:02.289Z,98870.12
2018-06-08T06:44:05.679Z,98873.66
2018-06-08T06:47:08.941Z,98873.37
2018-06-08T06:50:12.039Z,98873.41
2018-06-08T06:53:16.757Z,98878.53
2018-06-08T06:56:19.930Z,98874.45
2018-06-08T06:59:23.055Z,98870.43
2018-06-08T07:02:26.066Z,98880.95
2018-06-08T07:05:29.159Z,98885.05
2018-06-08T07:08:32.221Z,98885.65
2018-06-08T07:11:35.386Z,98876.81
2018-06-08T07:14:38.426Z,98882.03
2018-06-08T07:17:41.691Z,98887.52
2018-06-08T07:20:44.911Z,98890.30
2018-06-08T07:23:48.110Z,98901.40
2018-06-08T07:26:51.384Z,98908.48
2018-06-08T07:29:54.747Z,98897.42
2018-06-08T07:32:58.129Z,98902.95
2018-06-08T07:36:01.375Z,98892.09
2018-06-08T07:39:06.330Z,98886.69
2018-06-08T07:42:09.680Z,98886.16
2018-06-08T07:45:13.078Z,98894.96
2018-06-08T07:48:16.375Z,98894.86
2018-06-08T07:51:19.627Z,98895.13
2018-06-08T07:54:22.854Z,98903.19
2018-06-08T07:57:26.134Z,98900.50
2018-06-08T08:00:29.458Z,98902.66
2018-06-08T08:03:32.832Z,98902.03
2018-06-08T08:06:36.236Z,98896.77
2018-06-08T08:09:39.602Z,98897.16
2018-06-08T08:12:43.008Z,98896.25
2018-06-08T08:15:46.315Z,98894.14
2018-06-08T08:18:49.592Z,98897.28
2018-06-08T08:21:53.189Z,98895.05
2018-06-08T08:24:56.578Z,98891.18
2018-06-08T08:28:00.102Z,98880.25
2018-06-08T08:31:04.700Z,98875.91
2018-06-08T08:34:08.058Z,98874.94
2018-06-08T08:37:11.353Z,98868.39
2018-06-08T08:40:14.831Z,98869.88
2018-06-08T08:43:18.303Z,98868.67
2018-06-08T08:46:24.195Z,98866.14
2018-06-08T08:49:34.588Z,98863.61
2018-06-08T08:52:39.170Z,98866.02
2018-06-08T08:55:42.789Z,98868.70
2018-06-08T08:58:46.427Z,98866.03
2018-06-08T09:01:49.856Z,98865.37
2018-06-08T09:04:53.250Z,98867.41
2018-06-08T09:07:58.013Z,98860.05
2018-06-08T09:11:01.084Z,98865.19
2018-06-08T09:14:04.247Z,98864.92
2018-06-08T09:17:07.488Z,98865.39
2018-06-08T09:20:11.027Z,98861.30
2018-06-08T09:23:14.615Z,98862.05
2018-06-08T09:26:18.063Z,98858.86
2018-06-08T09:29:21.821Z,98865.87
2018-06-08T09:32:26.430Z,98870.79
2018-06-08T09:35:30.097Z,98866.75
2018-06-08T09:38:34.691Z,98868.90
2018-06-08T09:41:38.346Z,98863.35
2018-06-08T09:44:41.780Z,98867.26
2018-06-08T09:47:44.928Z,98861.22
2018-06-08T09:50:48.661Z,98861.30
2018-06-08T09:53:52.247Z,98855.77
2018-06-08T09:56:56.087Z,98859.20
2018-06-08T10:00:00.361Z,98858.77
2018-06-08T10:03:05.556Z,98854.85
2018-06-08T10:06:09.232Z,98858.97
2018-06-08T10:09:13.646Z,98860.13
2018-06-08T10:12:17.047Z,98851.52
2018-06-08T10:15:21.387Z,98854.61
2018-06-08T10:18:26.028Z,98844.19
2018-06-08T10:21:31.209Z,98839.84
2018-06-08T10:24:35.290Z,98848.73
2018-06-08T10:27:39.336Z,98841.13
2018-06-08T10:30:42.801Z,98840.33
2018-06-08T10:33:45.797Z,98835.65
2018-06-08T10:36:51.475Z,98835.76
2018-06-08T10:39:55.098Z,98831.58
2018-06-08T10:43:01.314Z,98828.93
2018-06-08T10:46:08.529Z,98823.17
2018-06-08T10:49:14.092Z,98810.27
2018-06-08T10:52:18.490Z,98811.89
2018-06-08T10:55:25.357Z,98818.15
2018-06-08T10:58:30.892Z,98818.36
2018-06-08T11:01:39.913Z,98817.56
2018-06-08T11:04:43.887Z,98815.66
2018-06-08T11:07:48.436Z,98822.89
2018-06-08T11:10:54.073Z,98826.70
2018-06-08T11:13:58.544Z,98825.98
2018-06-08T11:17:03.535Z,98816.94
2018-06-08T11:20:09.326Z,98806.05
2018-06-08T11:23:13.047Z,98811.37
2018-06-08T11:26:20.245Z,98812.59
2018-06-08T11:29:24.039Z,98805.91
2018-06-08T11:32:28.564Z,98796.59
2018-06-08T11:35:32.119Z,98788.77
2018-06-08T11:38:35.616Z,98777.66
2018-06-08T11:41:40.394Z,98781.78
2018-06-08T11:44:43.874Z,98790.16
2018-06-08T11:47:50.809Z,98785.42
2018-06-08T11:50:54.216Z,98767.89
2018-06-08T11:53:57.482Z,98766.78
2018-06-08T11:57:01.482Z,98768.58
2018-06-08T12:00:05.985Z,98769.58
2018-06-08T12:03:09.688Z,98765.63
2018-06-08T12:06:14.319Z,98759.48
2018-06-08T12:09:18.898Z,98756.63
2018-06-08T12:12:23.279Z,98747.03
2018-06-08T12:15:26.731Z,98744.50
2018-06-08T12:18:31.305Z,98744.05
2018-06-08T12:21:34.856Z,98739.58
2018-06-08T12:24:38.373Z,98741.67
2018-06-08T12:27:42.811Z,98732.58
2018-06-08T12:30:46.413Z,98729.03
2018-06-08T12:33:50.046Z,98716.17
2018-06-08T12:36:53.653Z,98719.53
2018-06-08T12:40:01.092Z,98711.52
2018-06-08T12:43:05.756Z,98713.70
2018-06-08T12:46:10.342Z,98720.78
2018-06-08T12:49:14.809Z,98714.43
2018-06-08T12:52:20.066Z,98709.84
2018-06-08T12:55:23.740Z,98722.40
2018-06-08T12:58:27.086Z,98718.36
2018-06-08T13:01:30.625Z,98716.78
2018-06-08T13:04:36.050Z,98707.30
2018-06-08T13:07:39.862Z,98706.81
2018-06-08T13:10:44.237Z,98696.73
2018-06-08T13:13:48.052Z,98693.13
2018-06-08T13:16:52.458Z,98695.25
2018-06-08T13:19:57.318Z,98694.45
2018-06-08T13:23:01.103Z,98696.13
2018-06-08T13:26:04.649Z,98695.56
2018-06-08T13:29:10.016Z,98682.93
2018-06-08T13:32:15.792Z,98680.88
2018-06-08T13:35:19.361Z,98679.05
2018-06-08T13:38:25.723Z,98684.94
2018-06-08T13:41:29.728Z,98681.48
2018-06-08T13:44:33.602Z,98676.73
2018-06-08T13:47:41.806Z,98682.87
2018-06-08T13:50:46.285Z,98677.76
2018-06-08T13:53:49.836Z,98672.80
2018-06-08T13:56:53.572Z,98666.09
2018-06-08T13:59:57.329Z,98668.14
2018-06-08T14:03:01.838Z,98669.27
2018-06-08T14:06:05.891Z,98654.83
2018-06-08T14:09:10.692Z,98653.53
2018-06-08T14:12:14.614Z,98646.50
2018-06-08T14:15:18.232Z,98646.11
2018-06-08T14:18:21.725Z,98640.34
2018-06-08T14:21:26.601Z,98632.15
2018-06-08T14:24:30.346Z,98634.97
2018-06-08T14:27:33.959Z,98629.48
2018-06-08T14:30:42.797Z,98637.17
2018-06-08T14:33:46.318Z,98627.06
2018-06-08T14:36:51.973Z,98625.32
2018-06-08T14:39:55.565Z,98627.28
2018-06-08T14:42:59.189Z,98626.37
2018-06-08T14:46:03.820Z,98630.17
2018-06-08T14:49:08.746Z,98633.56
2018-06-08T14:52:11.934Z,98631.28
2018-06-08T14:55:20.975Z,98633.12
2018-06-08T14:58:25.546Z,98627.47
2018-06-08T15:01:30.391Z,98625.68
2018-06-08T15:04:34.830Z,98626.20
2018-06-08T15:07:38.567Z,98630.43
2018-06-08T15:10:42.276Z,98634.56
2018-06-08T15:13:46.237Z,98628.48
2018-06-08T15:16:50.921Z,98618.81
2018-06-08T15:19:57.641Z,98619.65
2018-06-08T15:23:02.369Z,98621.08
2018-06-08T15:26:05.299Z,98623.52
2018-06-08T15:29:08.789Z,98616.72
2018-06-08T15:32:12.335Z,98615.05
2018-06-08T15:35:15.784Z,98621.04
2018-06-08T15:38:21.237Z,98619.90
2018-06-08T15:41:24.639Z,98617.47
2018-06-08T15:44:28.134Z,98617.34
2018-06-08T15:47:32.513Z,98614.34
2018-06-08T15:50:36.162Z,98607.84
2018-06-08T15:53:39.804Z,98608.28
2018-06-08T15:56:43.369Z,98600.60
2018-06-08T15:59:50.353Z,98605.98
2018-06-08T16:02:53.771Z,98605.98
2018-06-08T16:05:58.384Z,98606.34
2018-06-08T16:09:01.870Z,98612.52
2018-06-08T16:12:05.728Z,98610.44
2018-06-08T16:15:09.209Z,98615.67
2018-06-08T16:18:12.792Z,98622.70
2018-06-08T16:21:16.517Z,98627.67
2018-06-08T16:24:20.267Z,98620.96
2018-06-08T16:27:23.383Z,98628.13
2018-06-08T16:30:27.089Z,98631.98
2018-06-08T16:33:30.592Z,98625.06
2018-06-08T16:36:33.637Z,98624.23
2018-06-08T16:39:37.410Z,98631.77
2018-06-08T16:42:40.409Z,98634.21
2018-06-08T16:45:43.987Z,98630.29
2018-06-08T16:48:47.023Z,98628.95
2018-06-08T16:51:50.590Z,98628.17
2018-06-08T16:54:54.140Z,98631.63
2018-06-08T16:57:57.730Z,98633.56
2018-06-08T17:01:01.730Z,98632.26
2018-06-08T17:04:05.261Z,98648.94
2018-06-08T17:07:12.593Z,98653.23
2018-06-08T17:10:17.084Z,98652.63
2018-06-08T17:13:20.708Z,98652.16
2018-06-08T17:16:24.274Z,98656.21
2018-06-08T17:19:27.918Z,98661.55
2018-06-08T17:22:30.955Z,98649.81
2018-06-08T17:25:34.480Z,98655.56
2018-06-08T17:28:37.856Z,98656.02
2018-06-08T17:31:41.588Z,98647.91
2018-06-08T17:34:45.301Z,98651.54
2018-06-08T17:37:49.301Z,98669.56
2018-06-08T17:40:53.115Z,98670.47
2018-06-08T17:43:56.822Z,98665.38
2018-06-08T17:51:07.232Z,98666.58
2018-06-08T17:54:10.969Z,98665.81
2018-06-08T17:57:14.622Z,98671.76
2018-06-08T18:00:18.047Z,98674.71
2018-06-08T18:03:21.981Z,98683.82
2018-06-08T18:06:25.456Z,98680.80
2018-06-08T18:09:29.023Z,98671.88
2018-06-08T18:12:32.483Z,98671.98
2018-06-08T18:15:35.930Z,98675.87
2018-06-08T18:18:43.263Z,98683.50
2018-06-08T18:21:46.506Z,98686.59
2018-06-08T18:24:50.116Z,98691.80
2018-06-08T18:27:53.166Z,98702.57
2018-06-08T18:30:56.752Z,98701.85
2018-06-08T18:34:00.229Z,98703.59
2018-06-08T18:37:03.994Z,98705.66
2018-06-08T18:40:07.670Z,98706.27
2018-06-08T18:43:12.357Z,98706.44
2018-06-08T18:46:15.881Z,98706.60
2018-06-08T18:49:19.340Z,98701.13
2018-06-08T18:52:24.615Z,98708.09
2018-06-08T18:55:28.217Z,98708.59
2018-06-08T18:58:31.848Z,98710.63
2018-06-08T19:01:35.696Z,98709.97
2018-06-08T19:04:39.415Z,98720.94
2018-06-08T19:07:42.893Z,98730.58
2018-06-08T19:10:46.492Z,98736.61
2018-06-08T19:13:51.098Z,98735.85
2018-06-08T19:16:54.592Z,98731.02
2018-06-08T19:19:58.384Z,98728.27
2018-06-08T19:23:02.122Z,98735.81
2018-06-08T19:26:05.543Z,98739.80
2018-06-08T19:29:09.915Z,98742.06
2018-06-08T19:32:13.451Z,98742.72
2018-06-08T19:35:17.187Z,98738.44
2018-06-08T19:38:20.490Z,98742.38
2018-06-08T19:41:23.776Z,98738.37
2018-06-08T19:44:28.896Z,98742.41
2018-06-08T19:47:32.674Z,98740.39
2018-06-08T19:50:37.047Z,98743.30
2018-06-08T19:53:40.431Z,98749.20
2018-06-08T19:56:44.182Z,98742.63
2018-06-08T19:59:49.230Z,98750.45
2018-06-08T20:02:52.716Z,98765.45
2018-06-08T20:05:56.181Z,98757.70
2018-06-08T20:08:59.919Z,98763.52
2018-06-08T20:12:03.544Z,98758.51
2018-06-08T20:15:07.989Z,98768.81
2018-06-08T20:18:11.318Z,98766.97
2018-06-08T20:21:14.853Z,98767.20
2018-06-08T20:24:18.313Z,98769.04
2018-06-08T20:27:21.887Z,98760.28
2018-06-08T20:30:25.488Z,98769.42
2018-06-08T20:33:29.055Z,98771.65
2018-06-08T20:36:32.553Z,98769.16
2018-06-08T20:39:36.216Z,98777.84
2018-06-08T20:42:39.600Z,98776.97
2018-06-08T20:45:43.358Z,98769.41
2018-06-08T20:48:46.904Z,98761.81
2018-06-08T20:51:50.876Z,98766.83
2018-06-08T20:54:54.950Z,98761.90
2018-06-08T20:58:00.530Z,98764.73
2018-06-08T21:01:04.115Z,98763.20
2018-06-08T21:04:07.716Z,98762.55
2018-06-08T21:07:11.444Z,98759.91
2018-06-08T21:10:15.165Z,98754.47
2018-06-08T21:13:19.034Z,98761.81
2018-06-08T21:16:22.633Z,98766.45
2018-06-08T21:19:26.301Z,98766.53
2018-06-08T21:22:29.742Z,98764.19
2018-06-08T21:25:33.395Z,98768.89
2018-06-08T21:28:37.016Z,98760.36
2018-06-08T21:31:40.686Z,98764.33
2018-06-08T21:34:44.303Z,98762.45
2018-06-08T21:37:47.666Z,98760.16
2018-06-08T21:40:51.184Z,98765.53
2018-06-08T21:43:54.791Z,98775.53
2018-06-08T21:46:58.627Z,98774.77
2018-06-08T21:50:02.059Z,98778.30
2018-06-08T21:53:05.573Z,98774.33
2018-06-08T21:56:09.341Z,98773.37
2018-06-08T21:59:12.771Z,98773.59
2018-06-08T22:02:16.334Z,98774.17
2018-06-08T22:05:19.668Z,98768.58
2018-06-08T22:08:23.162Z,98771.16
2018-06-08T22:11:26.720Z,98769.61
2018-06-08T22:14:30.195Z,98768.22
2018-06-08T22:17:33.592Z,98761.97
2018-06-08T22:20:37.091Z,98754.10
2018-06-08T22:23:41.364Z,98758.24
2018-06-08T22:26:44.927Z,98757.20
2018-06-08T22:29:48.383Z,98754.10
2018-06-08T22:32:52.564Z,98749.55
2018-06-08T22:35:56.169Z,98745.09
2018-06-08T22:39:02.053Z,98749.72
2018-06-08T22:42:05.657Z,98741.66
2018-06-08T22:45:09.070Z,98741.95
2018-06-08T22:48:12.626Z,98745.54
2018-06-08T22:51:16.244Z,98742.02
2018-06-08T22:54:19.584Z,98735.77
2018-06-08T22:57:22.966Z,98739.48
2018-06-08T23:00:26.515Z,98737.66
2018-06-08T23:03:30.063Z,98734.53
2018-06-08T23:06:33.492Z,98737.75
2018-06-08T23:09:37.056Z,98735.23
2018-06-08T23:12:40.428Z,98732.70
2018-06-08T23:15:43.818Z,98736.13
2018-06-08T23:18:47.675Z,98731.80
2018-06-08T23:21:51.650Z,98731.71
2018-06-08T23:24:55.134Z,98727.53
2018-06-08T23:27:58.488Z,98721.71
2018-06-08T23:31:02.239Z,98726.00
2018-06-08T23:34:05.812Z,98730.64
2018-06-08T23:37:09.429Z,98720.05
2018-06-08T23:40:12.749Z,98725.63
2018-06-08T23:43:16.128Z,98726.27
2018-06-08T23:46:19.709Z,98719.25
2018-06-08T23:49:23.193Z,98723.80
2018-06-08T23:52:26.830Z,98730.19
2018-06-08T23:55:30.211Z,98725.93
2018-06-08T23:58:33.677Z,98732.64
